sensor_id;sensor_type;location;lat;lon;timestamp;P1;durP1;ratioP1;P2;durP2;ratioP2
21354;SDS011;10835;50.148;19.760;2023-08-07T00:01:02;3.50;;;2.00;;
21354;SDS011;10835;50.148;19.760;2023-08-07T00:03:33;7.13;;;2.63;;
21354;SDS011;10835;50.148;19.760;2023-08-07T00:06:02;2.80;;;2.40;;
21354;SDS011;10835;50.148;19.760;2023-08-07T00:08:30;2.97;;;2.63;;
21354;SDS011;10835;50.148;19.760;2023-08-07T00:11:06;5.00;;;2.75;;
21354;SDS011;10835;50.148;19.760;2023-08-07T00:13:36;2.78;;;2.13;;
21354;SDS011;10835;50.148;19.760;2023-08-07T00:16:04;3.05;;;2.72;;
21354;SDS011;10835;50.148;19.760;2023-08-07T00:18:32;4.22;;;3.08;;
21354;SDS011;10835;50.148;19.760;2023-08-07T00:21:01;4.55;;;3.00;;
21354;SDS011;10835;50.148;19.760;2023-08-07T00:23:29;3.25;;;2.95;;
21354;SDS011;10835;50.148;19.760;2023-08-07T00:25:57;3.72;;;2.92;;
21354;SDS011;10835;50.148;19.760;2023-08-07T00:28:26;3.03;;;2.72;;
21354;SDS011;10835;50.148;19.760;2023-08-07T00:30:56;2.65;;;2.45;;
21354;SDS011;10835;50.148;19.760;2023-08-07T00:33:24;3.25;;;2.95;;
21354;SDS011;10835;50.148;19.760;2023-08-07T00:35:52;3.78;;;3.38;;
21354;SDS011;10835;50.148;19.760;2023-08-07T00:38:21;3.67;;;3.15;;
21354;SDS011;10835;50.148;19.760;2023-08-07T00:40:49;5.32;;;3.63;;
21354;SDS011;10835;50.148;19.760;2023-08-07T00:43:17;3.13;;;2.40;;
21354;SDS011;10835;50.148;19.760;2023-08-07T00:45:46;3.90;;;2.83;;
21354;SDS011;10835;50.148;19.760;2023-08-07T00:48:19;3.20;;;2.90;;
21354;SDS011;10835;50.148;19.760;2023-08-07T00:50:47;5.35;;;3.50;;
21354;SDS011;10835;50.148;19.760;2023-08-07T00:53:18;5.05;;;3.30;;
21354;SDS011;10835;50.148;19.760;2023-08-07T00:55:47;3.40;;;2.80;;
21354;SDS011;10835;50.148;19.760;2023-08-07T00:58:15;5.95;;;3.70;;
21354;SDS011;10835;50.148;19.760;2023-08-07T01:00:45;6.43;;;3.40;;
21354;SDS011;10835;50.148;19.760;2023-08-07T01:03:14;6.35;;;3.28;;
21354;SDS011;10835;50.148;19.760;2023-08-07T01:05:43;3.38;;;2.72;;
21354;SDS011;10835;50.148;19.760;2023-08-07T01:08:12;7.47;;;3.10;;
21354;SDS011;10835;50.148;19.760;2023-08-07T01:10:43;4.45;;;2.97;;
21354;SDS011;10835;50.148;19.760;2023-08-07T01:13:20;6.57;;;4.00;;
21354;SDS011;10835;50.148;19.760;2023-08-07T01:15:52;3.80;;;3.40;;
21354;SDS011;10835;50.148;19.760;2023-08-07T01:18:27;4.07;;;3.08;;
21354;SDS011;10835;50.148;19.760;2023-08-07T01:20:58;4.95;;;3.83;;
21354;SDS011;10835;50.148;19.760;2023-08-07T01:23:28;4.53;;;3.65;;
21354;SDS011;10835;50.148;19.760;2023-08-07T01:25:57;4.30;;;3.85;;
21354;SDS011;10835;50.148;19.760;2023-08-07T01:28:26;5.93;;;4.07;;
21354;SDS011;10835;50.148;19.760;2023-08-07T01:30:59;5.40;;;4.13;;
21354;SDS011;10835;50.148;19.760;2023-08-07T01:33:35;6.20;;;4.55;;
21354;SDS011;10835;50.148;19.760;2023-08-07T01:36:10;5.05;;;3.90;;
21354;SDS011;10835;50.148;19.760;2023-08-07T01:38:43;9.07;;;4.50;;
21354;SDS011;10835;50.148;19.760;2023-08-07T01:41:12;5.40;;;4.35;;
21354;SDS011;10835;50.148;19.760;2023-08-07T01:43:41;4.75;;;4.28;;
21354;SDS011;10835;50.148;19.760;2023-08-07T01:46:09;4.30;;;3.83;;
21354;SDS011;10835;50.148;19.760;2023-08-07T01:48:38;4.80;;;3.97;;
21354;SDS011;10835;50.148;19.760;2023-08-07T01:51:06;5.18;;;4.55;;
21354;SDS011;10835;50.148;19.760;2023-08-07T01:53:35;5.25;;;4.75;;
21354;SDS011;10835;50.148;19.760;2023-08-07T01:56:05;5.70;;;4.50;;
21354;SDS011;10835;50.148;19.760;2023-08-07T01:58:34;7.50;;;4.68;;
21354;SDS011;10835;50.148;19.760;2023-08-07T02:01:02;6.03;;;4.13;;
21354;SDS011;10835;50.148;19.760;2023-08-07T02:03:31;5.10;;;4.10;;
21354;SDS011;10835;50.148;19.760;2023-08-07T02:05:59;4.90;;;4.03;;
21354;SDS011;10835;50.148;19.760;2023-08-07T02:08:28;5.43;;;4.10;;
21354;SDS011;10835;50.148;19.760;2023-08-07T02:10:56;6.10;;;4.70;;
21354;SDS011;10835;50.148;19.760;2023-08-07T02:13:29;5.07;;;4.07;;
21354;SDS011;10835;50.148;19.760;2023-08-07T02:15:57;6.72;;;4.07;;
21354;SDS011;10835;50.148;19.760;2023-08-07T02:18:25;6.88;;;4.22;;
21354;SDS011;10835;50.148;19.760;2023-08-07T02:20:54;5.40;;;4.20;;
21354;SDS011;10835;50.148;19.760;2023-08-07T02:23:24;3.80;;;3.40;;
21354;SDS011;10835;50.148;19.760;2023-08-07T02:25:54;5.57;;;4.50;;
21354;SDS011;10835;50.148;19.760;2023-08-07T02:28:22;7.28;;;4.25;;
21354;SDS011;10835;50.148;19.760;2023-08-07T02:30:52;5.78;;;4.03;;
21354;SDS011;10835;50.148;19.760;2023-08-07T02:33:21;4.53;;;3.80;;
21354;SDS011;10835;50.148;19.760;2023-08-07T02:35:49;6.60;;;3.75;;
21354;SDS011;10835;50.148;19.760;2023-08-07T02:38:17;4.28;;;3.80;;
21354;SDS011;10835;50.148;19.760;2023-08-07T02:40:46;4.40;;;3.70;;
21354;SDS011;10835;50.148;19.760;2023-08-07T02:43:14;5.25;;;3.78;;
21354;SDS011;10835;50.148;19.760;2023-08-07T02:45:42;3.75;;;3.15;;
21354;SDS011;10835;50.148;19.760;2023-08-07T02:48:12;4.03;;;3.60;;
21354;SDS011;10835;50.148;19.760;2023-08-07T02:50:40;4.72;;;3.50;;
21354;SDS011;10835;50.148;19.760;2023-08-07T02:53:09;3.85;;;3.45;;
21354;SDS011;10835;50.148;19.760;2023-08-07T02:55:38;4.25;;;3.45;;
21354;SDS011;10835;50.148;19.760;2023-08-07T02:58:07;5.53;;;3.60;;
21354;SDS011;10835;50.148;19.760;2023-08-07T03:00:35;3.55;;;3.22;;
21354;SDS011;10835;50.148;19.760;2023-08-07T03:03:04;4.50;;;3.65;;
21354;SDS011;10835;50.148;19.760;2023-08-07T03:05:33;4.55;;;3.35;;
21354;SDS011;10835;50.148;19.760;2023-08-07T03:08:02;5.75;;;3.42;;
21354;SDS011;10835;50.148;19.760;2023-08-07T03:10:30;3.42;;;3.00;;
21354;SDS011;10835;50.148;19.760;2023-08-07T03:12:59;5.65;;;3.63;;
21354;SDS011;10835;50.148;19.760;2023-08-07T03:15:27;4.20;;;3.45;;
21354;SDS011;10835;50.148;19.760;2023-08-07T03:17:55;3.70;;;3.33;;
21354;SDS011;10835;50.148;19.760;2023-08-07T03:20:24;3.95;;;3.35;;
21354;SDS011;10835;50.148;19.760;2023-08-07T03:22:53;4.00;;;3.70;;
21354;SDS011;10835;50.148;19.760;2023-08-07T03:25:22;5.53;;;3.97;;
21354;SDS011;10835;50.148;19.760;2023-08-07T03:27:50;5.50;;;4.15;;
21354;SDS011;10835;50.148;19.760;2023-08-07T03:30:19;5.25;;;3.85;;
21354;SDS011;10835;50.148;19.760;2023-08-07T03:32:47;8.48;;;3.97;;
21354;SDS011;10835;50.148;19.760;2023-08-07T03:35:16;4.35;;;3.28;;
21354;SDS011;10835;50.148;19.760;2023-08-07T03:37:45;4.68;;;3.55;;
21354;SDS011;10835;50.148;19.760;2023-08-07T03:40:15;3.40;;;3.10;;
21354;SDS011;10835;50.148;19.760;2023-08-07T03:42:43;4.28;;;3.70;;
21354;SDS011;10835;50.148;19.760;2023-08-07T03:45:11;4.22;;;2.80;;
21354;SDS011;10835;50.148;19.760;2023-08-07T03:47:41;5.18;;;3.70;;
21354;SDS011;10835;50.148;19.760;2023-08-07T03:50:09;4.85;;;3.13;;
21354;SDS011;10835;50.148;19.760;2023-08-07T03:52:38;4.22;;;2.80;;
21354;SDS011;10835;50.148;19.760;2023-08-07T03:55:06;3.20;;;2.85;;
21354;SDS011;10835;50.148;19.760;2023-08-07T03:57:39;3.17;;;2.88;;
21354;SDS011;10835;50.148;19.760;2023-08-07T04:00:08;10.63;;;3.10;;
21354;SDS011;10835;50.148;19.760;2023-08-07T04:02:39;4.30;;;3.05;;
21354;SDS011;10835;50.148;19.760;2023-08-07T04:05:10;3.70;;;2.72;;
21354;SDS011;10835;50.148;19.760;2023-08-07T04:07:39;3.47;;;2.63;;
21354;SDS011;10835;50.148;19.760;2023-08-07T04:10:07;3.83;;;2.92;;
21354;SDS011;10835;50.148;19.760;2023-08-07T04:12:36;3.30;;;2.92;;
21354;SDS011;10835;50.148;19.760;2023-08-07T04:15:07;3.15;;;2.72;;
21354;SDS011;10835;50.148;19.760;2023-08-07T04:17:36;3.40;;;2.78;;
21354;SDS011;10835;50.148;19.760;2023-08-07T04:20:05;3.70;;;2.70;;
21354;SDS011;10835;50.148;19.760;2023-08-07T04:22:35;2.63;;;2.42;;
21354;SDS011;10835;50.148;19.760;2023-08-07T04:25:03;2.67;;;2.35;;
21354;SDS011;10835;50.148;19.760;2023-08-07T04:27:32;4.03;;;2.20;;
21354;SDS011;10835;50.148;19.760;2023-08-07T04:30:00;2.20;;;2.00;;
21354;SDS011;10835;50.148;19.760;2023-08-07T04:32:30;2.25;;;2.05;;
21354;SDS011;10835;50.148;19.760;2023-08-07T04:34:59;2.10;;;1.90;;
21354;SDS011;10835;50.148;19.760;2023-08-07T04:37:27;2.53;;;2.33;;
21354;SDS011;10835;50.148;19.760;2023-08-07T04:39:56;3.45;;;2.20;;
21354;SDS011;10835;50.148;19.760;2023-08-07T04:42:27;2.78;;;2.22;;
21354;SDS011;10835;50.148;19.760;2023-08-07T04:44:56;3.78;;;2.08;;
21354;SDS011;10835;50.148;19.760;2023-08-07T04:47:24;4.13;;;2.25;;
21354;SDS011;10835;50.148;19.760;2023-08-07T04:49:54;2.60;;;2.40;;
21354;SDS011;10835;50.148;19.760;2023-08-07T04:52:23;6.25;;;2.35;;
21354;SDS011;10835;50.148;19.760;2023-08-07T04:54:52;2.58;;;2.05;;
21354;SDS011;10835;50.148;19.760;2023-08-07T04:57:20;3.58;;;1.77;;
21354;SDS011;10835;50.148;19.760;2023-08-07T04:59:49;2.95;;;2.40;;
21354;SDS011;10835;50.148;19.760;2023-08-07T05:02:20;4.55;;;1.67;;
21354;SDS011;10835;50.148;19.760;2023-08-07T05:04:48;2.08;;;1.73;;
21354;SDS011;10835;50.148;19.760;2023-08-07T05:07:18;1.73;;;1.55;;
21354;SDS011;10835;50.148;19.760;2023-08-07T05:09:46;3.80;;;1.48;;
21354;SDS011;10835;50.148;19.760;2023-08-07T05:12:16;1.70;;;1.60;;
21354;SDS011;10835;50.148;19.760;2023-08-07T05:14:44;2.35;;;1.58;;
21354;SDS011;10835;50.148;19.760;2023-08-07T05:17:12;1.67;;;1.40;;
21354;SDS011;10835;50.148;19.760;2023-08-07T05:19:41;1.17;;;1.10;;
21354;SDS011;10835;50.148;19.760;2023-08-07T05:22:09;1.30;;;1.20;;
21354;SDS011;10835;50.148;19.760;2023-08-07T05:24:39;1.33;;;1.17;;
21354;SDS011;10835;50.148;19.760;2023-08-07T05:27:08;3.00;;;1.00;;
21354;SDS011;10835;50.148;19.760;2023-08-07T05:29:36;2.45;;;0.80;;
21354;SDS011;10835;50.148;19.760;2023-08-07T05:32:10;3.10;;;1.15;;
21354;SDS011;10835;50.148;19.760;2023-08-07T05:34:39;1.10;;;1.00;;
21354;SDS011;10835;50.148;19.760;2023-08-07T05:37:07;1.15;;;0.95;;
21354;SDS011;10835;50.148;19.760;2023-08-07T05:39:36;1.45;;;1.10;;
21354;SDS011;10835;50.148;19.760;2023-08-07T05:42:06;1.92;;;0.93;;
21354;SDS011;10835;50.148;19.760;2023-08-07T05:44:37;2.38;;;1.00;;
21354;SDS011;10835;50.148;19.760;2023-08-07T05:47:08;0.90;;;0.80;;
21354;SDS011;10835;50.148;19.760;2023-08-07T05:49:36;0.75;;;0.60;;
21354;SDS011;10835;50.148;19.760;2023-08-07T05:52:05;0.60;;;0.60;;
21354;SDS011;10835;50.148;19.760;2023-08-07T05:54:34;0.93;;;0.80;;
21354;SDS011;10835;50.148;19.760;2023-08-07T05:57:03;0.73;;;0.70;;
21354;SDS011;10835;50.148;19.760;2023-08-07T05:59:33;0.52;;;0.50;;
21354;SDS011;10835;50.148;19.760;2023-08-07T06:02:02;0.63;;;0.63;;
21354;SDS011;10835;50.148;19.760;2023-08-07T06:04:33;0.50;;;0.50;;
21354;SDS011;10835;50.148;19.760;2023-08-07T06:07:02;6.63;;;0.50;;
21354;SDS011;10835;50.148;19.760;2023-08-07T06:09:30;1.25;;;0.68;;
21354;SDS011;10835;50.148;19.760;2023-08-07T06:11:59;0.40;;;0.40;;
21354;SDS011;10835;50.148;19.760;2023-08-07T06:14:28;0.52;;;0.40;;
21354;SDS011;10835;50.148;19.760;2023-08-07T06:16:58;0.40;;;0.40;;
21354;SDS011;10835;50.148;19.760;2023-08-07T06:19:28;0.28;;;0.28;;
21354;SDS011;10835;50.148;19.760;2023-08-07T06:21:58;0.35;;;0.35;;
21354;SDS011;10835;50.148;19.760;2023-08-07T06:24:27;0.70;;;0.60;;
21354;SDS011;10835;50.148;19.760;2023-08-07T06:26:56;0.30;;;0.30;;
21354;SDS011;10835;50.148;19.760;2023-08-07T06:29:24;0.50;;;0.50;;
21354;SDS011;10835;50.148;19.760;2023-08-07T06:31:52;0.30;;;0.30;;
21354;SDS011;10835;50.148;19.760;2023-08-07T06:34:23;0.45;;;0.45;;
21354;SDS011;10835;50.148;19.760;2023-08-07T06:36:51;0.40;;;0.40;;
21354;SDS011;10835;50.148;19.760;2023-08-07T06:39:19;0.40;;;0.40;;
21354;SDS011;10835;50.148;19.760;2023-08-07T06:41:48;0.52;;;0.52;;
21354;SDS011;10835;50.148;19.760;2023-08-07T06:44:23;2.03;;;0.40;;
21354;SDS011;10835;50.148;19.760;2023-08-07T06:46:51;0.50;;;0.50;;
21354;SDS011;10835;50.148;19.760;2023-08-07T06:49:20;0.40;;;0.40;;
21354;SDS011;10835;50.148;19.760;2023-08-07T06:51:49;0.60;;;0.60;;
21354;SDS011;10835;50.148;19.760;2023-08-07T06:54:21;0.40;;;0.40;;
21354;SDS011;10835;50.148;19.760;2023-08-07T06:56:49;0.50;;;0.50;;
21354;SDS011;10835;50.148;19.760;2023-08-07T06:59:18;0.50;;;0.50;;
21354;SDS011;10835;50.148;19.760;2023-08-07T07:01:46;1.40;;;0.70;;
21354;SDS011;10835;50.148;19.760;2023-08-07T07:04:15;2.78;;;0.70;;
21354;SDS011;10835;50.148;19.760;2023-08-07T07:06:43;3.70;;;0.60;;
21354;SDS011;10835;50.148;19.760;2023-08-07T07:09:14;0.95;;;0.50;;
21354;SDS011;10835;50.148;19.760;2023-08-07T07:11:43;0.95;;;0.68;;
21354;SDS011;10835;50.148;19.760;2023-08-07T07:14:11;0.30;;;0.30;;
21354;SDS011;10835;50.148;19.760;2023-08-07T07:16:39;0.60;;;0.60;;
21354;SDS011;10835;50.148;19.760;2023-08-07T07:19:08;0.50;;;0.50;;
21354;SDS011;10835;50.148;19.760;2023-08-07T07:21:37;0.85;;;0.60;;
21354;SDS011;10835;50.148;19.760;2023-08-07T07:24:05;1.30;;;0.68;;
21354;SDS011;10835;50.148;19.760;2023-08-07T07:26:35;3.10;;;0.52;;
21354;SDS011;10835;50.148;19.760;2023-08-07T07:29:03;2.63;;;0.57;;
21354;SDS011;10835;50.148;19.760;2023-08-07T07:31:32;0.70;;;0.70;;
21354;SDS011;10835;50.148;19.760;2023-08-07T07:34:00;1.10;;;0.70;;
21354;SDS011;10835;50.148;19.760;2023-08-07T07:36:29;1.42;;;0.70;;
21354;SDS011;10835;50.148;19.760;2023-08-07T07:38:57;0.40;;;0.40;;
21354;SDS011;10835;50.148;19.760;2023-08-07T07:41:26;0.70;;;0.65;;
21354;SDS011;10835;50.148;19.760;2023-08-07T07:43:56;3.97;;;0.60;;
21354;SDS011;10835;50.148;19.760;2023-08-07T07:46:24;0.73;;;0.73;;
21354;SDS011;10835;50.148;19.760;2023-08-07T07:48:53;0.60;;;0.60;;
21354;SDS011;10835;50.148;19.760;2023-08-07T07:51:23;0.60;;;0.60;;
21354;SDS011;10835;50.148;19.760;2023-08-07T07:53:51;1.50;;;0.60;;
21354;SDS011;10835;50.148;19.760;2023-08-07T07:56:39;0.60;;;0.60;;
21354;SDS011;10835;50.148;19.760;2023-08-07T07:59:08;0.88;;;0.60;;
21354;SDS011;10835;50.148;19.760;2023-08-07T08:01:40;0.50;;;0.50;;
21354;SDS011;10835;50.148;19.760;2023-08-07T08:04:08;0.80;;;0.80;;
21354;SDS011;10835;50.148;19.760;2023-08-07T08:06:40;0.50;;;0.50;;
21354;SDS011;10835;50.148;19.760;2023-08-07T08:09:09;0.70;;;0.70;;
21354;SDS011;10835;50.148;19.760;2023-08-07T08:11:37;1.17;;;0.75;;
21354;SDS011;10835;50.148;19.760;2023-08-07T08:14:10;0.50;;;0.50;;
21354;SDS011;10835;50.148;19.760;2023-08-07T08:16:41;1.83;;;0.70;;
21354;SDS011;10835;50.148;19.760;2023-08-07T08:19:09;0.80;;;0.70;;
21354;SDS011;10835;50.148;19.760;2023-08-07T08:21:38;2.17;;;0.65;;
21354;SDS011;10835;50.148;19.760;2023-08-07T08:24:08;0.52;;;0.52;;
21354;SDS011;10835;50.148;19.760;2023-08-07T08:26:36;0.60;;;0.60;;
21354;SDS011;10835;50.148;19.760;2023-08-07T08:29:05;4.55;;;0.80;;
21354;SDS011;10835;50.148;19.760;2023-08-07T08:31:40;0.80;;;0.50;;
21354;SDS011;10835;50.148;19.760;2023-08-07T08:34:08;0.90;;;0.70;;
21354;SDS011;10835;50.148;19.760;2023-08-07T08:36:37;0.60;;;0.60;;
21354;SDS011;10835;50.148;19.760;2023-08-07T08:39:09;0.30;;;0.30;;
21354;SDS011;10835;50.148;19.760;2023-08-07T08:41:37;0.55;;;0.40;;
21354;SDS011;10835;50.148;19.760;2023-08-07T08:44:07;0.20;;;0.20;;
21354;SDS011;10835;50.148;19.760;2023-08-07T08:46:37;0.93;;;0.47;;
21354;SDS011;10835;50.148;19.760;2023-08-07T08:49:09;1.55;;;0.50;;
21354;SDS011;10835;50.148;19.760;2023-08-07T08:51:40;0.40;;;0.40;;
21354;SDS011;10835;50.148;19.760;2023-08-07T08:54:09;0.50;;;0.50;;
21354;SDS011;10835;50.148;19.760;2023-08-07T08:56:38;0.60;;;0.60;;
21354;SDS011;10835;50.148;19.760;2023-08-07T08:59:07;0.82;;;0.60;;
21354;SDS011;10835;50.148;19.760;2023-08-07T09:01:40;0.43;;;0.43;;
21354;SDS011;10835;50.148;19.760;2023-08-07T09:04:08;2.90;;;0.60;;
21354;SDS011;10835;50.148;19.760;2023-08-07T09:06:38;0.50;;;0.50;;
21354;SDS011;10835;50.148;19.760;2023-08-07T09:09:10;0.77;;;0.60;;
21354;SDS011;10835;50.148;19.760;2023-08-07T09:11:41;0.45;;;0.45;;
21354;SDS011;10835;50.148;19.760;2023-08-07T09:14:11;1.17;;;0.68;;
21354;SDS011;10835;50.148;19.760;2023-08-07T09:19:16;0.50;;;0.50;;
21354;SDS011;10835;50.148;19.760;2023-08-07T09:21:44;1.75;;;0.50;;
21354;SDS011;10835;50.148;19.760;2023-08-07T09:24:13;1.85;;;0.60;;
21354;SDS011;10835;50.148;19.760;2023-08-07T09:26:43;0.75;;;0.60;;
21354;SDS011;10835;50.148;19.760;2023-08-07T09:29:11;6.18;;;0.70;;
21354;SDS011;10835;50.148;19.760;2023-08-07T09:31:42;1.20;;;1.10;;
21354;SDS011;10835;50.148;19.760;2023-08-07T09:34:19;2.40;;;0.60;;
21354;SDS011;10835;50.148;19.760;2023-08-07T09:36:47;0.63;;;0.63;;
21354;SDS011;10835;50.148;19.760;2023-08-07T09:39:16;0.50;;;0.50;;
21354;SDS011;10835;50.148;19.760;2023-08-07T09:41:54;0.70;;;0.60;;
21354;SDS011;10835;50.148;19.760;2023-08-07T09:44:23;0.70;;;0.70;;
21354;SDS011;10835;50.148;19.760;2023-08-07T09:46:51;0.70;;;0.70;;
21354;SDS011;10835;50.148;19.760;2023-08-07T09:49:21;0.65;;;0.63;;
21354;SDS011;10835;50.148;19.760;2023-08-07T09:51:59;0.70;;;0.70;;
21354;SDS011;10835;50.148;19.760;2023-08-07T09:54:36;0.73;;;0.70;;
21354;SDS011;10835;50.148;19.760;2023-08-07T09:57:05;0.60;;;0.60;;
21354;SDS011;10835;50.148;19.760;2023-08-07T09:59:34;0.70;;;0.70;;
21354;SDS011;10835;50.148;19.760;2023-08-07T10:02:03;1.45;;;0.80;;
21354;SDS011;10835;50.148;19.760;2023-08-07T10:04:33;0.75;;;0.75;;
21354;SDS011;10835;50.148;19.760;2023-08-07T10:07:03;0.90;;;0.90;;
21354;SDS011;10835;50.148;19.760;2023-08-07T10:09:35;1.23;;;0.90;;
21354;SDS011;10835;50.148;19.760;2023-08-07T10:12:04;1.58;;;0.88;;
21354;SDS011;10835;50.148;19.760;2023-08-07T10:14:33;0.80;;;0.73;;
21354;SDS011;10835;50.148;19.760;2023-08-07T10:17:01;1.10;;;1.00;;
21354;SDS011;10835;50.148;19.760;2023-08-07T10:19:30;1.02;;;0.90;;
21354;SDS011;10835;50.148;19.760;2023-08-07T10:22:00;0.60;;;0.60;;
21354;SDS011;10835;50.148;19.760;2023-08-07T10:24:30;2.05;;;0.68;;
21354;SDS011;10835;50.148;19.760;2023-08-07T10:27:00;0.60;;;0.60;;
21354;SDS011;10835;50.148;19.760;2023-08-07T10:29:29;1.23;;;1.05;;
21354;SDS011;10835;50.148;19.760;2023-08-07T10:31:59;0.50;;;0.50;;
21354;SDS011;10835;50.148;19.760;2023-08-07T10:34:29;1.40;;;0.80;;
21354;SDS011;10835;50.148;19.760;2023-08-07T10:37:02;0.70;;;0.70;;
21354;SDS011;10835;50.148;19.760;2023-08-07T10:40:01;0.70;;;0.70;;
21354;SDS011;10835;50.148;19.760;2023-08-07T10:42:49;0.70;;;0.70;;
21354;SDS011;10835;50.148;19.760;2023-08-07T10:45:26;0.98;;;0.80;;
21354;SDS011;10835;50.148;19.760;2023-08-07T10:48:02;0.73;;;0.73;;
21354;SDS011;10835;50.148;19.760;2023-08-07T10:50:33;1.10;;;1.00;;
21354;SDS011;10835;50.148;19.760;2023-08-07T10:53:04;0.80;;;0.80;;
21354;SDS011;10835;50.148;19.760;2023-08-07T10:55:42;1.13;;;1.02;;
21354;SDS011;10835;50.148;19.760;2023-08-07T10:58:21;0.77;;;0.77;;
21354;SDS011;10835;50.148;19.760;2023-08-07T11:03:43;1.08;;;0.70;;
21354;SDS011;10835;50.148;19.760;2023-08-07T11:06:22;0.80;;;0.80;;
21354;SDS011;10835;50.148;19.760;2023-08-07T11:08:54;1.40;;;0.70;;
21354;SDS011;10835;50.148;19.760;2023-08-07T11:11:27;1.45;;;0.80;;
21354;SDS011;10835;50.148;19.760;2023-08-07T11:13:57;0.95;;;0.80;;
21354;SDS011;10835;50.148;19.760;2023-08-07T11:16:28;1.00;;;0.90;;
21354;SDS011;10835;50.148;19.760;2023-08-07T11:18:59;0.70;;;0.70;;
21354;SDS011;10835;50.148;19.760;2023-08-07T11:21:28;0.80;;;0.80;;
21354;SDS011;10835;50.148;19.760;2023-08-07T11:24:01;1.27;;;0.90;;
21354;SDS011;10835;50.148;19.760;2023-08-07T11:26:30;0.68;;;0.68;;
21354;SDS011;10835;50.148;19.760;2023-08-07T11:29:00;1.75;;;0.80;;
21354;SDS011;10835;50.148;19.760;2023-08-07T11:31:32;3.33;;;1.00;;
21354;SDS011;10835;50.148;19.760;2023-08-07T11:34:01;0.73;;;0.73;;
21354;SDS011;10835;50.148;19.760;2023-08-07T11:36:30;1.08;;;0.70;;
21354;SDS011;10835;50.148;19.760;2023-08-07T11:39:01;2.10;;;0.80;;
21354;SDS011;10835;50.148;19.760;2023-08-07T11:41:31;1.30;;;0.60;;
21354;SDS011;10835;50.148;19.760;2023-08-07T11:43:59;1.30;;;0.80;;
21354;SDS011;10835;50.148;19.760;2023-08-07T11:46:28;1.08;;;0.98;;
21354;SDS011;10835;50.148;19.760;2023-08-07T11:48:57;2.15;;;1.10;;
21354;SDS011;10835;50.148;19.760;2023-08-07T11:51:34;0.93;;;0.80;;
21354;SDS011;10835;50.148;19.760;2023-08-07T11:54:04;1.00;;;0.90;;
21354;SDS011;10835;50.148;19.760;2023-08-07T11:56:33;1.42;;;0.80;;
21354;SDS011;10835;50.148;19.760;2023-08-07T11:59:01;1.00;;;0.90;;
21354;SDS011;10835;50.148;19.760;2023-08-07T12:01:30;1.83;;;0.95;;
21354;SDS011;10835;50.148;19.760;2023-08-07T12:04:09;1.27;;;1.17;;
21354;SDS011;10835;50.148;19.760;2023-08-07T12:06:37;1.88;;;1.08;;
21354;SDS011;10835;50.148;19.760;2023-08-07T12:09:08;1.52;;;1.13;;
21354;SDS011;10835;50.148;19.760;2023-08-07T12:11:39;1.20;;;0.95;;
21354;SDS011;10835;50.148;19.760;2023-08-07T12:14:08;2.42;;;1.13;;
21354;SDS011;10835;50.148;19.760;2023-08-07T12:16:43;3.10;;;1.02;;
21354;SDS011;10835;50.148;19.760;2023-08-07T12:19:14;3.08;;;1.40;;
21354;SDS011;10835;50.148;19.760;2023-08-07T12:21:43;2.28;;;1.40;;
21354;SDS011;10835;50.148;19.760;2023-08-07T12:24:13;2.80;;;0.90;;
21354;SDS011;10835;50.148;19.760;2023-08-07T12:26:42;1.10;;;1.00;;
21354;SDS011;10835;50.148;19.760;2023-08-07T12:29:10;3.17;;;1.05;;
21354;SDS011;10835;50.148;19.760;2023-08-07T12:31:39;3.40;;;1.20;;
21354;SDS011;10835;50.148;19.760;2023-08-07T12:34:07;1.58;;;1.08;;
21354;SDS011;10835;50.148;19.760;2023-08-07T12:36:40;0.82;;;0.82;;
21354;SDS011;10835;50.148;19.760;2023-08-07T12:39:08;2.45;;;1.25;;
21354;SDS011;10835;50.148;19.760;2023-08-07T12:41:41;4.65;;;1.90;;
21354;SDS011;10835;50.148;19.760;2023-08-07T12:44:29;5.60;;;2.67;;
21354;SDS011;10835;50.148;19.760;2023-08-07T12:46:58;7.32;;;3.38;;
21354;SDS011;10835;50.148;19.760;2023-08-07T12:49:26;6.57;;;3.03;;
21354;SDS011;10835;50.148;19.760;2023-08-07T12:51:55;6.00;;;3.03;;
21354;SDS011;10835;50.148;19.760;2023-08-07T12:54:24;5.50;;;3.05;;
21354;SDS011;10835;50.148;19.760;2023-08-07T12:56:54;5.68;;;2.72;;
21354;SDS011;10835;50.148;19.760;2023-08-07T12:59:23;6.57;;;3.08;;
21354;SDS011;10835;50.148;19.760;2023-08-07T13:01:51;6.50;;;2.97;;
21354;SDS011;10835;50.148;19.760;2023-08-07T13:04:20;4.00;;;2.38;;
21354;SDS011;10835;50.148;19.760;2023-08-07T13:06:48;6.15;;;2.75;;
21354;SDS011;10835;50.148;19.760;2023-08-07T13:09:17;4.20;;;3.00;;
21354;SDS011;10835;50.148;19.760;2023-08-07T13:11:47;4.78;;;2.17;;
21354;SDS011;10835;50.148;19.760;2023-08-07T13:14:16;4.13;;;2.45;;
21354;SDS011;10835;50.148;19.760;2023-08-07T13:16:45;4.15;;;1.73;;
21354;SDS011;10835;50.148;19.760;2023-08-07T13:19:21;5.20;;;1.80;;
21354;SDS011;10835;50.148;19.760;2023-08-07T13:21:49;4.28;;;1.70;;
21354;SDS011;10835;50.148;19.760;2023-08-07T13:24:18;3.78;;;1.63;;
21354;SDS011;10835;50.148;19.760;2023-08-07T13:26:46;2.72;;;1.70;;
21354;SDS011;10835;50.148;19.760;2023-08-07T13:29:16;1.80;;;1.30;;
21354;SDS011;10835;50.148;19.760;2023-08-07T13:31:45;3.05;;;1.92;;
21354;SDS011;10835;50.148;19.760;2023-08-07T13:34:18;2.65;;;1.48;;
21354;SDS011;10835;50.148;19.760;2023-08-07T13:36:47;1.73;;;1.45;;
21354;SDS011;10835;50.148;19.760;2023-08-07T13:39:15;2.80;;;1.45;;
21354;SDS011;10835;50.148;19.760;2023-08-07T13:41:44;4.45;;;1.80;;
21354;SDS011;10835;50.148;19.760;2023-08-07T13:44:14;4.18;;;1.23;;
21354;SDS011;10835;50.148;19.760;2023-08-07T13:46:44;1.50;;;1.40;;
21354;SDS011;10835;50.148;19.760;2023-08-07T13:49:14;2.53;;;1.60;;
21354;SDS011;10835;50.148;19.760;2023-08-07T13:51:43;6.05;;;2.72;;
21354;SDS011;10835;50.148;19.760;2023-08-07T13:54:11;3.65;;;2.72;;
21354;SDS011;10835;50.148;19.760;2023-08-07T13:56:40;3.83;;;2.25;;
21354;SDS011;10835;50.148;19.760;2023-08-07T13:59:08;3.47;;;2.35;;
21354;SDS011;10835;50.148;19.760;2023-08-07T14:01:37;2.60;;;2.30;;
21354;SDS011;10835;50.148;19.760;2023-08-07T14:04:06;3.22;;;1.85;;
21354;SDS011;10835;50.148;19.760;2023-08-07T14:06:35;2.03;;;1.73;;
21354;SDS011;10835;50.148;19.760;2023-08-07T14:09:03;3.53;;;2.08;;
21354;SDS011;10835;50.148;19.760;2023-08-07T14:11:32;2.22;;;1.88;;
21354;SDS011;10835;50.148;19.760;2023-08-07T14:14:01;2.92;;;1.83;;
21354;SDS011;10835;50.148;19.760;2023-08-07T14:16:29;3.38;;;1.80;;
21354;SDS011;10835;50.148;19.760;2023-08-07T14:18:59;2.65;;;1.90;;
21354;SDS011;10835;50.148;19.760;2023-08-07T14:21:28;4.18;;;2.20;;
21354;SDS011;10835;50.148;19.760;2023-08-07T14:23:57;2.53;;;1.92;;
21354;SDS011;10835;50.148;19.760;2023-08-07T14:26:26;3.22;;;2.03;;
21354;SDS011;10835;50.148;19.760;2023-08-07T14:28:54;3.20;;;2.22;;
21354;SDS011;10835;50.148;19.760;2023-08-07T14:31:23;2.92;;;2.10;;
21354;SDS011;10835;50.148;19.760;2023-08-07T14:33:54;2.70;;;2.08;;
21354;SDS011;10835;50.148;19.760;2023-08-07T14:36:23;2.05;;;1.80;;
21354;SDS011;10835;50.148;19.760;2023-08-07T14:38:53;2.65;;;2.00;;
21354;SDS011;10835;50.148;19.760;2023-08-07T14:41:21;3.25;;;2.00;;
21354;SDS011;10835;50.148;19.760;2023-08-07T14:43:50;2.45;;;2.10;;
21354;SDS011;10835;50.148;19.760;2023-08-07T14:46:19;2.78;;;2.15;;
21354;SDS011;10835;50.148;19.760;2023-08-07T14:48:50;3.65;;;2.20;;
21354;SDS011;10835;50.148;19.760;2023-08-07T14:51:20;5.13;;;2.20;;
21354;SDS011;10835;50.148;19.760;2023-08-07T14:53:48;3.67;;;2.13;;